createdAt,value
2019-03-24T00:02:01.547Z,82.43
2019-03-24T00:04:30.390Z,82.43
2019-03-24T00:06:59.185Z,82.48
2019-03-24T00:09:27.616Z,82.48
2019-03-24T00:11:56.144Z,82.57
2019-03-24T00:14:24.639Z,82.75
2019-03-24T00:16:53.153Z,82.76
2019-03-24T00:19:21.649Z,82.81
2019-03-24T00:21:50.092Z,82.78
2019-03-24T00:24:18.549Z,82.82
2019-03-24T00:26:47.106Z,83.09
2019-03-24T00:29:16.076Z,83.10
2019-03-24T00:31:44.792Z,83.01
2019-03-24T00:34:13.534Z,83.08
2019-03-24T00:36:41.966Z,83.08
2019-03-24T00:39:10.417Z,83.25
2019-03-24T00:41:38.873Z,83.23
2019-03-24T00:44:07.295Z,83.29
2019-03-24T00:46:35.755Z,83.32
2019-03-24T00:49:04.258Z,83.36
2019-03-24T00:51:32.720Z,83.33
2019-03-24T00:54:01.354Z,83.42
2019-03-24T00:56:31.050Z,83.28
2019-03-24T00:58:59.492Z,83.31
2019-03-24T01:01:27.925Z,83.38
2019-03-24T01:03:56.522Z,83.35
2019-03-24T01:06:24.982Z,83.31
2019-03-24T01:08:53.486Z,83.39
2019-03-24T01:11:21.941Z,83.40
2019-03-24T01:13:50.379Z,83.42
2019-03-24T01:16:18.800Z,83.40
2019-03-24T01:18:47.755Z,83.40
2019-03-24T01:21:16.198Z,83.34
2019-03-24T01:23:44.637Z,83.32
2019-03-24T01:26:13.083Z,83.32
2019-03-24T01:28:41.522Z,83.31
2019-03-24T01:31:09.949Z,83.36
2019-03-24T01:37:06.791Z,83.42
2019-03-24T01:39:35.460Z,83.39
2019-03-24T01:42:03.916Z,83.28
2019-03-24T01:44:32.792Z,83.35
2019-03-24T01:47:01.220Z,83.49
2019-03-24T01:49:29.670Z,83.50
2019-03-24T01:51:58.302Z,83.50
2019-03-24T01:54:26.908Z,83.61
2019-03-24T01:56:55.351Z,83.60
2019-03-24T01:59:23.825Z,83.65
2019-03-24T02:01:52.602Z,83.71
2019-03-24T02:04:21.023Z,83.79
2019-03-24T02:06:49.710Z,83.75
2019-03-24T02:09:18.155Z,83.69
2019-03-24T02:11:46.591Z,83.75
2019-03-24T02:14:15.051Z,83.90
2019-03-24T02:16:43.542Z,83.89
2019-03-24T02:19:11.961Z,83.92
2019-03-24T02:21:40.753Z,83.93
2019-03-24T02:24:09.601Z,84.08
2019-03-24T02:26:38.082Z,84.11
2019-03-24T02:29:07.021Z,84.09
2019-03-24T02:31:35.477Z,84.24
2019-03-24T02:34:03.911Z,84.12
2019-03-24T02:36:32.404Z,84.21
2019-03-24T02:39:00.851Z,84.26
2019-03-24T02:41:29.305Z,84.33
2019-03-24T02:43:58.003Z,84.37
2019-03-24T02:46:27.763Z,84.39
2019-03-24T02:48:56.200Z,84.42
2019-03-24T02:51:25.138Z,84.57
2019-03-24T02:53:53.641Z,84.48
2019-03-24T02:56:22.176Z,84.50
2019-03-24T02:58:50.824Z,84.63
2019-03-24T03:01:19.274Z,84.65
2019-03-24T03:03:47.723Z,84.69
2019-03-24T03:06:16.227Z,84.72
2019-03-24T03:08:44.656Z,84.74
2019-03-24T03:11:15.421Z,84.75
2019-03-24T03:13:43.916Z,84.74
2019-03-24T03:16:12.334Z,84.79
2019-03-24T03:18:40.741Z,84.87
2019-03-24T03:21:09.256Z,84.93
2019-03-24T03:23:37.912Z,84.87
2019-03-24T03:26:06.374Z,84.91
2019-03-24T03:28:35.246Z,85.00
2019-03-24T03:31:03.959Z,84.99
2019-03-24T03:33:32.405Z,85.04
2019-03-24T03:36:01.151Z,85.00
2019-03-24T03:38:29.588Z,85.04
2019-03-24T03:40:58.049Z,85.00
2019-03-24T03:43:26.506Z,84.99
2019-03-24T03:45:54.947Z,85.02
2019-03-24T03:48:23.366Z,85.08
2019-03-24T03:50:51.995Z,85.09
2019-03-24T03:53:20.429Z,85.06
2019-03-24T03:55:50.140Z,85.04
2019-03-24T03:58:18.677Z,85.07
2019-03-24T04:00:47.265Z,85.07
2019-03-24T04:03:15.749Z,85.05
2019-03-24T04:05:44.176Z,85.06
2019-03-24T04:08:12.609Z,85.13
2019-03-24T04:10:41.044Z,85.20
2019-03-24T04:13:09.497Z,85.22
2019-03-24T04:15:37.939Z,85.34
2019-03-24T04:18:06.453Z,85.33
2019-03-24T04:20:35.097Z,85.33
2019-03-24T04:23:03.645Z,85.26
2019-03-24T04:25:32.331Z,85.21
2019-03-24T04:28:00.886Z,85.26
2019-03-24T04:30:29.313Z,85.30
2019-03-24T04:32:57.833Z,85.31
2019-03-24T04:35:26.439Z,85.24
2019-03-24T04:37:54.967Z,85.19
2019-03-24T04:40:23.560Z,85.14
2019-03-24T04:42:52.026Z,85.07
2019-03-24T04:45:20.604Z,85.01
2019-03-24T04:47:49.063Z,84.97
2019-03-24T04:50:18.055Z,84.90
2019-03-24T04:52:46.516Z,84.80
2019-03-24T04:55:15.358Z,84.74
2019-03-24T04:57:43.892Z,84.65
2019-03-24T05:00:12.861Z,84.79
2019-03-24T05:02:41.334Z,84.91
2019-03-24T05:05:10.319Z,85.00
2019-03-24T05:07:40.346Z,85.11
2019-03-24T05:10:15.085Z,85.14
2019-03-24T05:12:43.551Z,85.17
2019-03-24T05:15:11.992Z,85.18
2019-03-24T05:17:40.473Z,85.17
2019-03-24T05:20:08.949Z,85.17
2019-03-24T05:22:37.396Z,85.13
2019-03-24T05:25:06.086Z,85.05
2019-03-24T05:27:34.789Z,84.95
2019-03-24T05:30:03.489Z,84.97
2019-03-24T05:32:32.454Z,85.02
2019-03-24T05:35:00.907Z,85.06
2019-03-24T05:37:29.345Z,85.11
2019-03-24T05:39:57.869Z,85.08
2019-03-24T05:42:26.306Z,84.97
2019-03-24T05:44:54.795Z,84.92
2019-03-24T05:47:23.416Z,84.90
2019-03-24T05:49:51.989Z,84.94
2019-03-24T05:52:20.455Z,85.00
2019-03-24T05:54:49.077Z,85.01
2019-03-24T05:57:17.510Z,85.09
2019-03-24T05:59:45.952Z,85.10
2019-03-24T06:02:14.420Z,85.11
2019-03-24T06:04:42.878Z,85.13
2019-03-24T06:07:11.303Z,85.12
2019-03-24T06:09:40.043Z,85.03
2019-03-24T06:12:08.709Z,84.88
2019-03-24T06:14:37.144Z,84.82
2019-03-24T06:17:05.971Z,84.80
2019-03-24T06:19:34.388Z,84.78
2019-03-24T06:22:02.846Z,84.73
2019-03-24T06:24:31.393Z,84.67
2019-03-24T06:26:59.814Z,84.58
2019-03-24T06:29:29.499Z,84.51
2019-03-24T06:31:58.070Z,84.44
2019-03-24T06:34:26.509Z,84.01
2019-03-24T06:36:54.957Z,83.95
2019-03-24T06:39:23.723Z,83.90
2019-03-24T06:41:52.137Z,83.71
2019-03-24T06:44:20.655Z,83.68
2019-03-24T06:46:49.158Z,83.63
2019-03-24T06:49:17.614Z,83.50
2019-03-24T06:51:46.044Z,83.17
2019-03-24T06:54:14.766Z,83.04
2019-03-24T06:56:43.203Z,82.93
2019-03-24T06:59:11.672Z,82.83
2019-03-24T07:01:40.247Z,82.78
2019-03-24T07:04:08.882Z,82.60
2019-03-24T07:06:37.319Z,82.38
2019-03-24T07:09:07.101Z,82.26
2019-03-24T07:11:35.570Z,82.17
2019-03-24T07:14:04.439Z,81.96
2019-03-24T07:16:33.224Z,81.73
2019-03-24T07:19:01.651Z,81.53
2019-03-24T07:21:30.100Z,81.41
2019-03-24T07:24:00.531Z,81.17
2019-03-24T07:26:29.118Z,81.04
2019-03-24T07:28:57.575Z,80.98
2019-03-24T07:31:26.307Z,81.01
2019-03-24T07:33:54.821Z,80.82
2019-03-24T07:36:23.286Z,80.66
2019-03-24T07:38:52.104Z,80.07
2019-03-24T07:41:20.557Z,79.74
2019-03-24T07:43:48.978Z,79.54
2019-03-24T07:46:17.574Z,79.48
2019-03-24T07:48:46.071Z,79.42
2019-03-24T07:51:14.580Z,79.29
2019-03-24T07:53:43.210Z,79.02
2019-03-24T07:56:11.670Z,79.04
2019-03-24T07:58:40.525Z,79.09
2019-03-24T08:01:09.532Z,79.10
2019-03-24T08:03:38.129Z,78.94
2019-03-24T08:06:06.959Z,78.62
2019-03-24T08:08:43.993Z,78.19
2019-03-24T08:11:08.072Z,77.81
2019-03-24T08:13:37.122Z,77.21
2019-03-24T08:16:07.709Z,76.59
2019-03-24T08:18:38.204Z,77.07
2019-03-24T08:21:07.361Z,76.72
2019-03-24T08:23:38.881Z,76.43
2019-03-24T08:26:09.536Z,75.92
2019-03-24T08:28:41.222Z,74.88
2019-03-24T08:31:13.111Z,74.57
2019-03-24T08:33:44.809Z,74.53
2019-03-24T08:36:15.622Z,74.67
2019-03-24T08:38:44.226Z,74.34
2019-03-24T08:41:13.398Z,73.68
2019-03-24T08:43:42.967Z,73.10
2019-03-24T08:46:15.692Z,72.27
2019-03-24T08:48:45.725Z,71.79
2019-03-24T08:51:15.011Z,71.14
2019-03-24T08:53:44.872Z,70.27
2019-03-24T08:56:14.005Z,68.82
2019-03-24T08:58:44.764Z,70.09
2019-03-24T09:01:13.336Z,69.95
2019-03-24T09:03:41.771Z,69.45
2019-03-24T09:06:12.870Z,69.07
2019-03-24T09:08:41.980Z,68.53
2019-03-24T09:11:13.794Z,68.63
2019-03-24T09:13:42.856Z,68.93
2019-03-24T09:16:14.716Z,68.86
2019-03-24T09:18:52.501Z,68.60
2019-03-24T09:21:16.031Z,68.02
2019-03-24T09:23:45.310Z,67.94
2019-03-24T09:26:16.902Z,67.83
2019-03-24T09:28:47.014Z,67.81
2019-03-24T09:31:17.280Z,67.51
2019-03-24T09:33:47.138Z,67.45
2019-03-24T09:36:19.518Z,67.18
2019-03-24T09:38:51.334Z,66.90
2019-03-24T09:41:20.939Z,66.57
2019-03-24T09:43:50.396Z,66.65
2019-03-24T09:46:19.662Z,66.87
2019-03-24T09:49:02.448Z,66.68
2019-03-24T09:51:23.080Z,66.20
2019-03-24T09:53:52.049Z,65.08
2019-03-24T09:56:21.477Z,65.06
2019-03-24T09:58:51.109Z,64.76
2019-03-24T10:01:20.749Z,64.51
2019-03-24T10:03:49.847Z,64.09
2019-03-24T10:06:18.535Z,63.91
2019-03-24T10:08:47.659Z,63.41
2019-03-24T10:11:18.706Z,62.75
2019-03-24T10:13:48.916Z,63.19
2019-03-24T10:16:19.345Z,62.81
2019-03-24T10:18:48.941Z,62.99
2019-03-24T10:21:19.142Z,62.32
2019-03-24T10:23:52.923Z,61.67
2019-03-24T10:26:23.140Z,61.50
2019-03-24T10:28:52.876Z,60.42
2019-03-24T10:31:21.821Z,60.22
2019-03-24T10:33:51.578Z,59.26
2019-03-24T10:36:21.532Z,59.52
2019-03-24T10:38:55.056Z,59.71
2019-03-24T10:41:26.554Z,59.91
2019-03-24T10:43:57.046Z,60.17
2019-03-24T10:46:27.184Z,60.41
2019-03-24T10:48:56.855Z,60.39
2019-03-24T10:51:27.066Z,59.54
2019-03-24T10:53:57.393Z,58.63
2019-03-24T10:56:26.474Z,59.06
2019-03-24T10:58:57.043Z,58.82
2019-03-24T11:01:27.066Z,59.10
2019-03-24T11:03:57.102Z,59.14
2019-03-24T11:06:27.169Z,56.41
2019-03-24T11:08:57.833Z,56.76
2019-03-24T11:11:27.599Z,57.01
2019-03-24T11:13:58.057Z,57.26
2019-03-24T11:16:29.639Z,57.22
2019-03-24T11:18:58.612Z,57.08
2019-03-24T11:21:28.426Z,56.89
2019-03-24T11:23:57.541Z,57.22
2019-03-24T11:26:27.914Z,57.09
2019-03-24T11:29:00.063Z,57.43
2019-03-24T11:31:29.893Z,58.29
2019-03-24T11:33:59.670Z,58.00
2019-03-24T11:36:30.194Z,57.77
2019-03-24T11:39:00.070Z,56.72
2019-03-24T11:41:30.956Z,55.95
2019-03-24T11:44:00.048Z,54.62
2019-03-24T11:46:30.944Z,53.56
2019-03-24T11:49:02.133Z,53.69
2019-03-24T11:51:30.860Z,53.93
2019-03-24T11:54:01.422Z,54.43
2019-03-24T11:56:32.775Z,54.38
2019-03-24T11:59:04.892Z,53.85
2019-03-24T12:01:38.624Z,53.92
2019-03-24T12:04:14.256Z,53.60
2019-03-24T12:06:46.913Z,53.19
2019-03-24T12:09:26.102Z,51.77
2019-03-24T12:11:57.339Z,50.99
2019-03-24T12:14:26.885Z,50.82
2019-03-24T12:16:56.316Z,50.90
2019-03-24T12:19:27.518Z,50.64
2019-03-24T12:21:58.655Z,50.86
2019-03-24T12:24:28.284Z,48.07
2019-03-24T12:26:57.894Z,47.49
2019-03-24T12:29:29.528Z,46.95
2019-03-24T12:32:00.736Z,46.58
2019-03-24T12:34:33.213Z,47.16
2019-03-24T12:37:05.296Z,46.94
2019-03-24T12:39:37.070Z,46.76
2019-03-24T12:42:07.021Z,46.37
2019-03-24T12:44:37.641Z,46.76
2019-03-24T12:47:13.688Z,47.05
2019-03-24T12:49:42.239Z,46.74
2019-03-24T12:52:13.662Z,46.13
2019-03-24T12:54:43.193Z,46.71
2019-03-24T12:57:11.740Z,46.79
2019-03-24T12:59:40.209Z,46.26
2019-03-24T13:02:09.069Z,46.19
2019-03-24T13:04:37.515Z,45.74
2019-03-24T13:07:05.993Z,46.07
2019-03-24T13:09:34.537Z,45.01
2019-03-24T13:12:02.980Z,44.53
2019-03-24T13:14:31.618Z,44.23
2019-03-24T13:17:00.094Z,44.66
2019-03-24T13:19:28.528Z,42.54
2019-03-24T13:21:57.116Z,41.19
2019-03-24T13:24:25.779Z,41.16
2019-03-24T13:26:54.553Z,39.89
2019-03-24T13:29:23.344Z,40.06
2019-03-24T13:31:52.627Z,40.59
2019-03-24T13:34:21.255Z,41.01
2019-03-24T13:36:51.908Z,40.90
2019-03-24T13:39:20.582Z,40.87
2019-03-24T13:41:49.568Z,40.89
2019-03-24T13:44:19.578Z,40.55
2019-03-24T13:46:50.378Z,39.15
2019-03-24T13:49:19.006Z,39.15
2019-03-24T13:51:47.436Z,37.83
2019-03-24T13:54:16.081Z,38.29
2019-03-24T13:56:44.919Z,37.91
2019-03-24T13:59:13.588Z,38.56
2019-03-24T14:01:44.892Z,39.05
2019-03-24T14:04:13.573Z,40.12
2019-03-24T14:06:42.415Z,40.93
2019-03-24T14:09:14.194Z,41.71
2019-03-24T14:11:44.167Z,42.31
2019-03-24T14:14:13.420Z,42.86
2019-03-24T14:16:42.307Z,43.57
2019-03-24T14:19:10.867Z,44.24
2019-03-24T14:21:39.366Z,44.62
2019-03-24T14:24:09.450Z,44.38
2019-03-24T14:26:38.140Z,43.69
2019-03-24T14:29:08.614Z,43.09
2019-03-24T14:31:38.389Z,42.77
2019-03-24T14:34:07.562Z,42.85
2019-03-24T14:36:36.853Z,43.54
2019-03-24T14:39:05.942Z,44.07
2019-03-24T14:41:34.413Z,44.11
2019-03-24T14:44:02.855Z,43.59
2019-03-24T14:46:31.338Z,43.41
2019-03-24T14:48:59.791Z,43.68
2019-03-24T14:51:28.247Z,44.33
2019-03-24T14:53:56.818Z,44.83
2019-03-24T14:56:25.268Z,45.48
2019-03-24T14:58:53.751Z,46.61
2019-03-24T15:01:22.217Z,47.07
2019-03-24T15:03:50.663Z,47.57
2019-03-24T15:06:19.251Z,47.70
2019-03-24T15:08:47.778Z,47.12
2019-03-24T15:11:16.218Z,46.26
2019-03-24T15:13:44.684Z,45.78
2019-03-24T15:16:13.152Z,44.87
2019-03-24T15:18:41.593Z,44.73
2019-03-24T15:21:11.462Z,44.48
2019-03-24T15:23:40.981Z,43.59
2019-03-24T15:26:09.828Z,43.47
2019-03-24T15:28:38.272Z,42.90
2019-03-24T15:31:08.099Z,42.96
2019-03-24T15:33:38.084Z,44.12
2019-03-24T15:36:07.967Z,44.68
2019-03-24T15:38:36.441Z,44.91
2019-03-24T15:41:04.967Z,45.05
2019-03-24T15:43:34.054Z,44.64
2019-03-24T15:46:03.053Z,44.01
2019-03-24T15:48:34.062Z,43.42
2019-03-24T15:51:04.256Z,43.09
2019-03-24T15:53:33.061Z,42.09
2019-03-24T15:56:02.133Z,42.31
2019-03-24T15:58:30.693Z,42.51
2019-03-24T16:01:00.621Z,42.33
2019-03-24T16:03:29.885Z,41.83
2019-03-24T16:05:59.993Z,41.23
2019-03-24T16:08:29.443Z,41.83
2019-03-24T16:10:58.506Z,42.71
2019-03-24T16:13:27.234Z,43.76
2019-03-24T16:15:55.733Z,45.20
2019-03-24T16:18:26.254Z,46.77
2019-03-24T16:20:54.874Z,46.93
2019-03-24T16:23:25.134Z,47.58
2019-03-24T16:25:55.739Z,48.53
2019-03-24T16:28:29.977Z,49.04
2019-03-24T16:31:01.177Z,49.64
2019-03-24T16:33:32.783Z,50.56
2019-03-24T16:36:02.522Z,51.11
2019-03-24T16:38:31.790Z,52.06
2019-03-24T16:41:03.143Z,52.25
2019-03-24T16:43:32.292Z,52.74
2019-03-24T16:46:01.593Z,53.20
2019-03-24T16:48:36.879Z,54.20
2019-03-24T16:51:02.149Z,54.14
2019-03-24T16:53:31.763Z,54.82
2019-03-24T16:56:02.756Z,55.47
2019-03-24T16:58:32.825Z,55.94
2019-03-24T17:01:03.688Z,56.69
2019-03-24T17:03:33.104Z,57.74
2019-03-24T17:06:03.268Z,58.15
2019-03-24T17:08:33.174Z,58.72
2019-03-24T17:11:02.084Z,59.31
2019-03-24T17:13:33.363Z,60.88
2019-03-24T17:16:02.330Z,61.04
2019-03-24T17:18:31.494Z,62.94
2019-03-24T17:21:01.135Z,63.25
2019-03-24T17:23:31.861Z,63.28
2019-03-24T17:26:02.671Z,63.95
2019-03-24T17:28:34.149Z,63.82
2019-03-24T17:31:04.471Z,64.75
2019-03-24T17:33:36.103Z,64.47
2019-03-24T17:36:05.519Z,65.53
2019-03-24T17:38:37.260Z,65.75
2019-03-24T17:41:07.384Z,65.57
2019-03-24T17:43:38.181Z,65.68
2019-03-24T17:46:07.379Z,66.19
2019-03-24T17:48:38.006Z,66.32
2019-03-24T17:51:08.745Z,67.22
2019-03-24T17:53:42.059Z,67.76
2019-03-24T17:56:11.646Z,67.91
2019-03-24T17:58:41.945Z,68.77
2019-03-24T18:01:11.165Z,68.40
2019-03-24T18:03:41.604Z,68.40
2019-03-24T18:06:11.105Z,68.78
2019-03-24T18:08:40.490Z,69.02
2019-03-24T18:11:09.481Z,69.06
2019-03-24T18:13:38.478Z,69.06
2019-03-24T18:16:09.923Z,69.12
2019-03-24T18:18:39.313Z,68.93
2019-03-24T18:21:11.914Z,68.09
2019-03-24T18:23:41.491Z,67.94
2019-03-24T18:26:11.166Z,67.62
2019-03-24T18:28:39.858Z,67.50
2019-03-24T18:31:09.583Z,67.35
2019-03-24T18:33:40.078Z,67.27
2019-03-24T18:36:09.500Z,67.08
2019-03-24T18:38:38.081Z,67.01
2019-03-24T18:41:07.190Z,66.65
2019-03-24T18:43:35.996Z,66.53
2019-03-24T18:46:05.143Z,66.36
2019-03-24T18:48:35.298Z,66.25
2019-03-24T18:51:04.355Z,66.23
2019-03-24T18:53:33.934Z,66.04
2019-03-24T18:56:07.562Z,65.85
2019-03-24T18:58:37.329Z,65.80
2019-03-24T19:01:09.094Z,65.66
2019-03-24T19:03:38.152Z,65.52
2019-03-24T19:06:06.805Z,65.43
2019-03-24T19:08:35.388Z,65.20
2019-03-24T19:11:04.772Z,65.20
2019-03-24T19:13:33.281Z,65.14
2019-03-24T19:16:02.346Z,64.72
2019-03-24T19:18:31.134Z,64.84
2019-03-24T19:21:00.017Z,64.73
2019-03-24T19:23:31.185Z,64.59
2019-03-24T19:26:00.075Z,64.53
2019-03-24T19:28:29.548Z,64.27
2019-03-24T19:30:58.489Z,64.09
2019-03-24T19:33:29.622Z,63.92
2019-03-24T19:36:02.408Z,63.87
2019-03-24T19:38:33.684Z,63.88
2019-03-24T19:41:02.976Z,63.71
2019-03-24T19:43:32.348Z,63.55
2019-03-24T19:46:01.416Z,63.50
2019-03-24T19:48:30.292Z,63.42
2019-03-24T19:50:59.061Z,63.46
2019-03-24T19:53:27.884Z,63.55
2019-03-24T19:55:56.413Z,63.63
2019-03-24T19:58:24.936Z,63.77
2019-03-24T20:00:56.556Z,63.79
2019-03-24T20:03:25.180Z,63.78
2019-03-24T20:05:53.874Z,63.79
2019-03-24T20:08:22.669Z,63.73
2019-03-24T20:10:51.146Z,63.74
2019-03-24T20:13:19.585Z,63.74
2019-03-24T20:15:48.033Z,63.80
2019-03-24T20:18:16.591Z,63.83
2019-03-24T20:20:45.018Z,63.96
2019-03-24T20:23:13.483Z,63.94
2019-03-24T20:25:43.185Z,64.05
2019-03-24T20:28:11.608Z,64.23
2019-03-24T20:30:40.037Z,64.37
2019-03-24T20:33:08.830Z,64.56
2019-03-24T20:35:37.253Z,65.18
2019-03-24T20:38:05.744Z,65.22
2019-03-24T20:40:34.505Z,65.46
2019-03-24T20:43:02.924Z,65.78
2019-03-24T20:45:31.588Z,66.39
2019-03-24T20:48:00.392Z,66.80
2019-03-24T20:50:28.762Z,66.81
2019-03-24T20:53:04.021Z,66.88
2019-03-24T20:55:27.399Z,67.09
2019-03-24T20:57:55.926Z,67.24
2019-03-24T21:00:37.463Z,67.52
2019-03-24T21:03:26.678Z,67.42
2019-03-24T21:05:55.355Z,67.78
2019-03-24T21:08:23.794Z,67.78
2019-03-24T21:10:52.323Z,68.03
2019-03-24T21:13:20.940Z,68.25
2019-03-24T21:15:49.513Z,68.51
2019-03-24T21:18:18.005Z,68.42
2019-03-24T21:20:46.955Z,68.54
2019-03-24T21:23:15.889Z,68.71
2019-03-24T21:25:44.331Z,68.92
2019-03-24T21:28:13.141Z,68.92
2019-03-24T21:30:41.851Z,68.85
2019-03-24T21:33:10.670Z,68.88
2019-03-24T21:35:39.215Z,68.84
2019-03-24T21:38:07.643Z,68.76
2019-03-24T21:40:36.108Z,68.63
2019-03-24T21:43:06.551Z,68.59
2019-03-24T21:45:35.478Z,68.56
2019-03-24T21:48:04.081Z,68.67
2019-03-24T21:50:32.913Z,68.85
2019-03-24T21:53:01.352Z,68.90
2019-03-24T21:55:29.797Z,69.08
2019-03-24T21:57:58.554Z,69.21
2019-03-24T22:00:32.414Z,69.34
2019-03-24T22:03:00.868Z,69.56
2019-03-24T22:05:29.541Z,69.77
2019-03-24T22:07:57.966Z,69.94
2019-03-24T22:10:26.410Z,69.97
2019-03-24T22:12:54.900Z,70.21
2019-03-24T22:15:23.336Z,70.49
2019-03-24T22:17:52.040Z,70.78
2019-03-24T22:20:20.655Z,70.82
2019-03-24T22:22:49.109Z,71.26
2019-03-24T22:25:17.548Z,71.15
2019-03-24T22:27:46.309Z,71.44
2019-03-24T22:30:15.090Z,71.62
2019-03-24T22:32:43.535Z,71.46
2019-03-24T22:35:12.198Z,71.52
2019-03-24T22:37:40.640Z,71.61
2019-03-24T22:40:09.311Z,71.52
2019-03-24T22:42:37.851Z,71.62
2019-03-24T22:45:06.537Z,71.48
2019-03-24T22:47:35.047Z,71.37
2019-03-24T22:50:05.308Z,71.36
2019-03-24T22:52:35.437Z,71.34
2019-03-24T22:55:07.269Z,71.52
2019-03-24T22:57:36.056Z,71.46
2019-03-24T23:00:08.545Z,71.50
2019-03-24T23:02:37.307Z,71.52
2019-03-24T23:05:06.114Z,71.65
2019-03-24T23:07:34.553Z,71.61
2019-03-24T23:10:03.243Z,71.79
2019-03-24T23:12:31.723Z,72.00
2019-03-24T23:15:00.316Z,72.27
2019-03-24T23:17:28.997Z,72.47
2019-03-24T23:19:57.499Z,72.47
2019-03-24T23:22:25.954Z,72.70
2019-03-24T23:24:54.386Z,72.70
2019-03-24T23:27:22.967Z,72.65
2019-03-24T23:29:51.405Z,72.79
2019-03-24T23:32:19.859Z,72.52
2019-03-24T23:34:48.340Z,72.43
2019-03-24T23:37:16.775Z,72.28
2019-03-24T23:39:45.202Z,72.14
2019-03-24T23:42:14.039Z,72.13
2019-03-24T23:44:42.469Z,72.05
2019-03-24T23:47:10.930Z,71.95
2019-03-24T23:49:39.361Z,72.03
2019-03-24T23:52:07.787Z,71.99
2019-03-24T23:54:36.217Z,71.95
2019-03-24T23:57:04.669Z,71.90
2019-03-24T23:59:33.095Z,71.86
